sensor_id;sensor_type;location;lat;lon;timestamp;P1;durP1;ratioP1;P2;durP2;ratioP2
7359;SDS011;3720;48.274;7.796;2023-05-10T00:00:57;1.55;;;1.00;;
7359;SDS011;3720;48.274;7.796;2023-05-10T00:03:29;4.57;;;1.20;;
7359;SDS011;3720;48.274;7.796;2023-05-10T00:06:01;1.90;;;1.15;;
7359;SDS011;3720;48.274;7.796;2023-05-10T00:08:33;2.53;;;1.40;;
7359;SDS011;3720;48.274;7.796;2023-05-10T00:11:06;1.52;;;1.20;;
7359;SDS011;3720;48.274;7.796;2023-05-10T00:13:38;2.30;;;1.30;;
7359;SDS011;3720;48.274;7.796;2023-05-10T00:16:10;1.40;;;1.05;;
7359;SDS011;3720;48.274;7.796;2023-05-10T00:18:43;2.97;;;1.38;;
7359;SDS011;3720;48.274;7.796;2023-05-10T00:21:15;1.63;;;1.05;;
7359;SDS011;3720;48.274;7.796;2023-05-10T00:23:46;3.75;;;1.10;;
7359;SDS011;3720;48.274;7.796;2023-05-10T00:26:20;3.13;;;1.20;;
7359;SDS011;3720;48.274;7.796;2023-05-10T00:28:52;1.63;;;1.00;;
7359;SDS011;3720;48.274;7.796;2023-05-10T00:31:23;1.92;;;0.95;;
7359;SDS011;3720;48.274;7.796;2023-05-10T00:33:55;2.50;;;1.10;;
7359;SDS011;3720;48.274;7.796;2023-05-10T00:36:27;2.75;;;1.02;;
7359;SDS011;3720;48.274;7.796;2023-05-10T00:38:59;1.30;;;1.00;;
7359;SDS011;3720;48.274;7.796;2023-05-10T00:41:34;1.50;;;1.08;;
7359;SDS011;3720;48.274;7.796;2023-05-10T00:44:06;3.22;;;1.10;;
7359;SDS011;3720;48.274;7.796;2023-05-10T00:46:38;5.18;;;1.10;;
7359;SDS011;3720;48.274;7.796;2023-05-10T00:49:10;1.52;;;1.13;;
7359;SDS011;3720;48.274;7.796;2023-05-10T00:51:42;3.55;;;1.00;;
7359;SDS011;3720;48.274;7.796;2023-05-10T00:54:15;2.10;;;0.90;;
7359;SDS011;3720;48.274;7.796;2023-05-10T00:56:49;1.02;;;0.90;;
7359;SDS011;3720;48.274;7.796;2023-05-10T00:59:21;1.77;;;0.82;;
7359;SDS011;3720;48.274;7.796;2023-05-10T01:01:53;1.27;;;1.02;;
7359;SDS011;3720;48.274;7.796;2023-05-10T01:04:25;1.35;;;0.80;;
7359;SDS011;3720;48.274;7.796;2023-05-10T01:06:58;2.97;;;1.00;;
7359;SDS011;3720;48.274;7.796;2023-05-10T01:09:30;1.35;;;1.10;;
7359;SDS011;3720;48.274;7.796;2023-05-10T01:12:05;3.00;;;1.05;;
7359;SDS011;3720;48.274;7.796;2023-05-10T01:14:37;5.07;;;1.25;;
7359;SDS011;3720;48.274;7.796;2023-05-10T01:17:10;1.27;;;1.10;;
7359;SDS011;3720;48.274;7.796;2023-05-10T01:19:43;4.25;;;1.35;;
7359;SDS011;3720;48.274;7.796;2023-05-10T01:22:22;1.98;;;1.30;;
7359;SDS011;3720;48.274;7.796;2023-05-10T01:28:57;3.72;;;1.27;;
7359;SDS011;3720;48.274;7.796;2023-05-10T01:34:46;3.50;;;1.10;;
7359;SDS011;3720;48.274;7.796;2023-05-10T01:37:26;2.38;;;0.90;;
7359;SDS011;3720;48.274;7.796;2023-05-10T01:40:05;1.58;;;1.20;;
7359;SDS011;3720;48.274;7.796;2023-05-10T01:42:41;3.55;;;1.27;;
7359;SDS011;3720;48.274;7.796;2023-05-10T01:45:19;3.17;;;1.20;;
7359;SDS011;3720;48.274;7.796;2023-05-10T01:48:01;2.40;;;1.20;;
7359;SDS011;3720;48.274;7.796;2023-05-10T01:50:38;4.32;;;1.20;;
7359;SDS011;3720;48.274;7.796;2023-05-10T01:53:13;2.30;;;1.23;;
7359;SDS011;3720;48.274;7.796;2023-05-10T01:55:51;3.17;;;1.20;;
7359;SDS011;3720;48.274;7.796;2023-05-10T01:58:27;2.47;;;1.10;;
7359;SDS011;3720;48.274;7.796;2023-05-10T02:01:02;4.63;;;1.17;;
7359;SDS011;3720;48.274;7.796;2023-05-10T02:03:37;2.38;;;1.25;;
7359;SDS011;3720;48.274;7.796;2023-05-10T02:06:12;3.88;;;1.20;;
7359;SDS011;3720;48.274;7.796;2023-05-10T02:08:46;5.03;;;1.20;;
7359;SDS011;3720;48.274;7.796;2023-05-10T02:11:19;2.35;;;1.02;;
7359;SDS011;3720;48.274;7.796;2023-05-10T02:13:52;3.40;;;1.33;;
7359;SDS011;3720;48.274;7.796;2023-05-10T02:16:26;1.38;;;0.90;;
7359;SDS011;3720;48.274;7.796;2023-05-10T02:19:02;2.60;;;1.10;;
7359;SDS011;3720;48.274;7.796;2023-05-10T02:21:35;1.48;;;1.13;;
7359;SDS011;3720;48.274;7.796;2023-05-10T02:24:08;1.10;;;1.00;;
7359;SDS011;3720;48.274;7.796;2023-05-10T02:26:42;2.97;;;1.20;;
7359;SDS011;3720;48.274;7.796;2023-05-10T02:29:15;1.38;;;1.20;;
7359;SDS011;3720;48.274;7.796;2023-05-10T02:31:49;1.35;;;1.00;;
7359;SDS011;3720;48.274;7.796;2023-05-10T02:34:25;1.63;;;1.05;;
7359;SDS011;3720;48.274;7.796;2023-05-10T02:36:58;1.77;;;1.27;;
7359;SDS011;3720;48.274;7.796;2023-05-10T02:39:32;3.92;;;1.30;;
7359;SDS011;3720;48.274;7.796;2023-05-10T02:42:05;2.30;;;1.20;;
7359;SDS011;3720;48.274;7.796;2023-05-10T02:44:37;3.38;;;1.40;;
7359;SDS011;3720;48.274;7.796;2023-05-10T02:47:11;3.30;;;1.40;;
7359;SDS011;3720;48.274;7.796;2023-05-10T02:49:44;4.72;;;1.15;;
7359;SDS011;3720;48.274;7.796;2023-05-10T02:52:19;1.70;;;1.20;;
7359;SDS011;3720;48.274;7.796;2023-05-10T02:54:58;3.90;;;1.30;;
7359;SDS011;3720;48.274;7.796;2023-05-10T02:57:34;3.67;;;1.40;;
7359;SDS011;3720;48.274;7.796;2023-05-10T03:00:10;3.33;;;1.10;;
7359;SDS011;3720;48.274;7.796;2023-05-10T03:02:43;2.33;;;1.13;;
7359;SDS011;3720;48.274;7.796;2023-05-10T03:05:16;3.15;;;1.20;;
7359;SDS011;3720;48.274;7.796;2023-05-10T03:07:48;2.17;;;1.40;;
7359;SDS011;3720;48.274;7.796;2023-05-10T03:10:20;2.58;;;1.35;;
7359;SDS011;3720;48.274;7.796;2023-05-10T03:13:01;5.75;;;1.60;;
7359;SDS011;3720;48.274;7.796;2023-05-10T03:15:42;3.40;;;1.50;;
7359;SDS011;3720;48.274;7.796;2023-05-10T03:18:28;2.13;;;1.40;;
7359;SDS011;3720;48.274;7.796;2023-05-10T03:21:07;3.80;;;1.60;;
7359;SDS011;3720;48.274;7.796;2023-05-10T03:23:43;1.85;;;1.40;;
7359;SDS011;3720;48.274;7.796;2023-05-10T03:26:20;2.78;;;1.40;;
7359;SDS011;3720;48.274;7.796;2023-05-10T03:28:55;2.53;;;1.50;;
7359;SDS011;3720;48.274;7.796;2023-05-10T03:31:29;3.42;;;1.50;;
7359;SDS011;3720;48.274;7.796;2023-05-10T03:34:01;2.58;;;1.50;;
7359;SDS011;3720;48.274;7.796;2023-05-10T03:36:35;3.25;;;1.52;;
7359;SDS011;3720;48.274;7.796;2023-05-10T03:39:06;2.97;;;1.67;;
7359;SDS011;3720;48.274;7.796;2023-05-10T03:41:39;1.75;;;1.48;;
7359;SDS011;3720;48.274;7.796;2023-05-10T03:44:11;3.05;;;1.63;;
7359;SDS011;3720;48.274;7.796;2023-05-10T03:46:43;5.38;;;1.70;;
7359;SDS011;3720;48.274;7.796;2023-05-10T03:49:15;2.42;;;1.65;;
7359;SDS011;3720;48.274;7.796;2023-05-10T03:51:48;1.92;;;1.50;;
7359;SDS011;3720;48.274;7.796;2023-05-10T03:54:20;4.07;;;1.83;;
7359;SDS011;3720;48.274;7.796;2023-05-10T03:56:52;2.75;;;1.70;;
7359;SDS011;3720;48.274;7.796;2023-05-10T03:59:24;1.95;;;1.70;;
7359;SDS011;3720;48.274;7.796;2023-05-10T04:01:56;1.95;;;1.60;;
7359;SDS011;3720;48.274;7.796;2023-05-10T04:04:28;2.65;;;1.75;;
7359;SDS011;3720;48.274;7.796;2023-05-10T04:07:02;3.88;;;1.88;;
7359;SDS011;3720;48.274;7.796;2023-05-10T04:09:34;8.68;;;2.10;;
7359;SDS011;3720;48.274;7.796;2023-05-10T04:12:06;4.45;;;2.00;;
7359;SDS011;3720;48.274;7.796;2023-05-10T04:14:38;2.60;;;1.98;;
7359;SDS011;3720;48.274;7.796;2023-05-10T04:17:10;2.88;;;1.90;;
7359;SDS011;3720;48.274;7.796;2023-05-10T04:19:42;2.17;;;1.98;;
7359;SDS011;3720;48.274;7.796;2023-05-10T04:22:15;4.82;;;1.83;;
7359;SDS011;3720;48.274;7.796;2023-05-10T04:24:47;3.88;;;1.80;;
7359;SDS011;3720;48.274;7.796;2023-05-10T04:27:19;2.38;;;1.70;;
7359;SDS011;3720;48.274;7.796;2023-05-10T04:29:51;3.45;;;1.70;;
7359;SDS011;3720;48.274;7.796;2023-05-10T04:32:23;3.70;;;1.60;;
7359;SDS011;3720;48.274;7.796;2023-05-10T04:34:55;4.45;;;2.00;;
7359;SDS011;3720;48.274;7.796;2023-05-10T04:37:28;3.45;;;1.60;;
7359;SDS011;3720;48.274;7.796;2023-05-10T04:40:00;2.72;;;1.80;;
7359;SDS011;3720;48.274;7.796;2023-05-10T04:42:33;3.60;;;2.05;;
7359;SDS011;3720;48.274;7.796;2023-05-10T04:45:05;4.68;;;1.80;;
7359;SDS011;3720;48.274;7.796;2023-05-10T04:47:39;2.67;;;1.70;;
7359;SDS011;3720;48.274;7.796;2023-05-10T04:50:11;1.83;;;1.70;;
7359;SDS011;3720;48.274;7.796;2023-05-10T04:52:44;2.30;;;1.50;;
7359;SDS011;3720;48.274;7.796;2023-05-10T04:55:16;3.83;;;1.90;;
7359;SDS011;3720;48.274;7.796;2023-05-10T04:57:48;3.15;;;1.95;;
7359;SDS011;3720;48.274;7.796;2023-05-10T05:00:20;2.65;;;1.90;;
7359;SDS011;3720;48.274;7.796;2023-05-10T05:02:52;4.25;;;1.90;;
7359;SDS011;3720;48.274;7.796;2023-05-10T05:05:24;3.10;;;2.17;;
7359;SDS011;3720;48.274;7.796;2023-05-10T05:07:57;2.42;;;1.80;;
7359;SDS011;3720;48.274;7.796;2023-05-10T05:10:29;6.93;;;1.85;;
7359;SDS011;3720;48.274;7.796;2023-05-10T05:13:02;2.95;;;1.90;;
7359;SDS011;3720;48.274;7.796;2023-05-10T05:15:33;2.20;;;1.90;;
7359;SDS011;3720;48.274;7.796;2023-05-10T05:18:06;3.25;;;2.00;;
7359;SDS011;3720;48.274;7.796;2023-05-10T05:20:38;2.67;;;2.10;;
7359;SDS011;3720;48.274;7.796;2023-05-10T05:23:11;3.88;;;1.95;;
7359;SDS011;3720;48.274;7.796;2023-05-10T05:25:43;2.42;;;1.90;;
7359;SDS011;3720;48.274;7.796;2023-05-10T05:28:14;4.22;;;2.10;;
7359;SDS011;3720;48.274;7.796;2023-05-10T05:30:47;4.35;;;2.10;;
7359;SDS011;3720;48.274;7.796;2023-05-10T05:33:18;4.70;;;1.85;;
7359;SDS011;3720;48.274;7.796;2023-05-10T05:35:50;5.03;;;2.40;;
7359;SDS011;3720;48.274;7.796;2023-05-10T05:38:24;3.67;;;2.55;;
7359;SDS011;3720;48.274;7.796;2023-05-10T05:40:56;4.50;;;2.20;;
7359;SDS011;3720;48.274;7.796;2023-05-10T05:43:28;5.55;;;2.00;;
7359;SDS011;3720;48.274;7.796;2023-05-10T05:46:00;2.95;;;1.98;;
7359;SDS011;3720;48.274;7.796;2023-05-10T05:48:32;3.67;;;2.05;;
7359;SDS011;3720;48.274;7.796;2023-05-10T05:51:04;2.83;;;1.92;;
7359;SDS011;3720;48.274;7.796;2023-05-10T05:53:37;3.85;;;2.00;;
7359;SDS011;3720;48.274;7.796;2023-05-10T05:56:09;2.45;;;1.73;;
7359;SDS011;3720;48.274;7.796;2023-05-10T05:58:41;2.95;;;1.85;;
7359;SDS011;3720;48.274;7.796;2023-05-10T06:01:12;3.30;;;1.70;;
7359;SDS011;3720;48.274;7.796;2023-05-10T06:03:44;4.40;;;2.05;;
7359;SDS011;3720;48.274;7.796;2023-05-10T06:06:16;4.65;;;2.25;;
7359;SDS011;3720;48.274;7.796;2023-05-10T06:08:49;3.58;;;1.95;;
7359;SDS011;3720;48.274;7.796;2023-05-10T06:11:21;2.50;;;1.77;;
7359;SDS011;3720;48.274;7.796;2023-05-10T06:13:53;5.47;;;2.20;;
7359;SDS011;3720;48.274;7.796;2023-05-10T06:16:26;4.10;;;2.10;;
7359;SDS011;3720;48.274;7.796;2023-05-10T06:18:57;5.13;;;2.03;;
7359;SDS011;3720;48.274;7.796;2023-05-10T06:21:30;4.63;;;2.28;;
7359;SDS011;3720;48.274;7.796;2023-05-10T06:24:03;5.22;;;2.25;;
7359;SDS011;3720;48.274;7.796;2023-05-10T06:26:36;5.40;;;2.40;;
7359;SDS011;3720;48.274;7.796;2023-05-10T06:29:08;4.70;;;2.42;;
7359;SDS011;3720;48.274;7.796;2023-05-10T06:31:40;5.50;;;2.45;;
7359;SDS011;3720;48.274;7.796;2023-05-10T06:34:12;3.67;;;2.40;;
7359;SDS011;3720;48.274;7.796;2023-05-10T06:36:44;4.03;;;2.35;;
7359;SDS011;3720;48.274;7.796;2023-05-10T06:39:18;4.00;;;2.50;;
7359;SDS011;3720;48.274;7.796;2023-05-10T06:41:50;7.78;;;2.85;;
7359;SDS011;3720;48.274;7.796;2023-05-10T06:44:22;4.88;;;2.47;;
7359;SDS011;3720;48.274;7.796;2023-05-10T06:46:54;6.00;;;2.70;;
7359;SDS011;3720;48.274;7.796;2023-05-10T06:49:26;5.15;;;2.65;;
7359;SDS011;3720;48.274;7.796;2023-05-10T06:51:58;5.13;;;2.50;;
7359;SDS011;3720;48.274;7.796;2023-05-10T06:54:31;4.57;;;2.40;;
7359;SDS011;3720;48.274;7.796;2023-05-10T06:57:03;3.40;;;2.38;;
7359;SDS011;3720;48.274;7.796;2023-05-10T06:59:35;5.20;;;2.45;;
7359;SDS011;3720;48.274;7.796;2023-05-10T07:02:07;4.15;;;2.50;;
7359;SDS011;3720;48.274;7.796;2023-05-10T07:04:39;4.32;;;2.47;;
7359;SDS011;3720;48.274;7.796;2023-05-10T07:07:11;4.40;;;2.28;;
7359;SDS011;3720;48.274;7.796;2023-05-10T07:09:45;3.30;;;2.20;;
7359;SDS011;3720;48.274;7.796;2023-05-10T07:12:17;3.33;;;2.05;;
7359;SDS011;3720;48.274;7.796;2023-05-10T07:14:49;3.75;;;2.10;;
7359;SDS011;3720;48.274;7.796;2023-05-10T07:17:21;5.35;;;1.95;;
7359;SDS011;3720;48.274;7.796;2023-05-10T07:19:53;3.45;;;2.00;;
7359;SDS011;3720;48.274;7.796;2023-05-10T07:22:25;7.63;;;2.20;;
7359;SDS011;3720;48.274;7.796;2023-05-10T07:24:58;2.97;;;1.80;;
7359;SDS011;3720;48.274;7.796;2023-05-10T07:27:30;4.18;;;1.73;;
7359;SDS011;3720;48.274;7.796;2023-05-10T07:30:02;3.25;;;1.75;;
7359;SDS011;3720;48.274;7.796;2023-05-10T07:32:35;3.90;;;1.60;;
7359;SDS011;3720;48.274;7.796;2023-05-10T07:35:07;3.67;;;1.48;;
7359;SDS011;3720;48.274;7.796;2023-05-10T07:37:40;2.85;;;1.70;;
7359;SDS011;3720;48.274;7.796;2023-05-10T07:40:13;1.85;;;1.40;;
7359;SDS011;3720;48.274;7.796;2023-05-10T07:42:45;4.53;;;1.60;;
7359;SDS011;3720;48.274;7.796;2023-05-10T07:45:17;2.63;;;1.90;;
7359;SDS011;3720;48.274;7.796;2023-05-10T07:47:49;2.45;;;1.95;;
7359;SDS011;3720;48.274;7.796;2023-05-10T07:50:21;4.07;;;1.90;;
7359;SDS011;3720;48.274;7.796;2023-05-10T07:52:52;2.45;;;1.38;;
7359;SDS011;3720;48.274;7.796;2023-05-10T07:55:26;2.72;;;1.42;;
7359;SDS011;3720;48.274;7.796;2023-05-10T07:57:58;2.20;;;1.55;;
7359;SDS011;3720;48.274;7.796;2023-05-10T08:00:31;3.72;;;1.60;;
7359;SDS011;3720;48.274;7.796;2023-05-10T08:03:03;2.35;;;1.40;;
7359;SDS011;3720;48.274;7.796;2023-05-10T08:05:35;1.95;;;1.20;;
7359;SDS011;3720;48.274;7.796;2023-05-10T08:08:07;3.80;;;1.20;;
7359;SDS011;3720;48.274;7.796;2023-05-10T08:10:41;1.30;;;1.20;;
7359;SDS011;3720;48.274;7.796;2023-05-10T08:13:12;2.30;;;1.10;;
7359;SDS011;3720;48.274;7.796;2023-05-10T08:15:44;2.28;;;0.95;;
7359;SDS011;3720;48.274;7.796;2023-05-10T08:18:16;2.08;;;1.17;;
7359;SDS011;3720;48.274;7.796;2023-05-10T08:20:48;2.80;;;1.27;;
7359;SDS011;3720;48.274;7.796;2023-05-10T08:23:20;3.53;;;1.30;;
7359;SDS011;3720;48.274;7.796;2023-05-10T08:25:53;2.78;;;1.00;;
7359;SDS011;3720;48.274;7.796;2023-05-10T08:28:25;0.98;;;0.95;;
7359;SDS011;3720;48.274;7.796;2023-05-10T08:30:57;2.08;;;1.20;;
7359;SDS011;3720;48.274;7.796;2023-05-10T08:33:29;3.08;;;1.15;;
7359;SDS011;3720;48.274;7.796;2023-05-10T08:36:01;2.25;;;0.93;;
7359;SDS011;3720;48.274;7.796;2023-05-10T08:38:33;2.35;;;1.20;;
7359;SDS011;3720;48.274;7.796;2023-05-10T08:41:06;3.47;;;1.30;;
7359;SDS011;3720;48.274;7.796;2023-05-10T08:43:38;1.48;;;0.75;;
7359;SDS011;3720;48.274;7.796;2023-05-10T08:46:16;5.25;;;0.80;;
7359;SDS011;3720;48.274;7.796;2023-05-10T08:48:50;1.33;;;0.70;;
7359;SDS011;3720;48.274;7.796;2023-05-10T08:51:23;1.75;;;0.90;;
7359;SDS011;3720;48.274;7.796;2023-05-10T08:53:56;2.97;;;0.93;;
7359;SDS011;3720;48.274;7.796;2023-05-10T08:56:30;3.20;;;1.17;;
7359;SDS011;3720;48.274;7.796;2023-05-10T08:59:07;3.25;;;1.10;;
7359;SDS011;3720;48.274;7.796;2023-05-10T09:01:39;2.85;;;1.27;;
7359;SDS011;3720;48.274;7.796;2023-05-10T09:04:14;6.13;;;1.38;;
7359;SDS011;3720;48.274;7.796;2023-05-10T09:06:45;2.28;;;0.90;;
7359;SDS011;3720;48.274;7.796;2023-05-10T09:09:17;5.03;;;1.00;;
7359;SDS011;3720;48.274;7.796;2023-05-10T09:11:52;2.38;;;0.80;;
7359;SDS011;3720;48.274;7.796;2023-05-10T09:14:24;2.75;;;0.90;;
7359;SDS011;3720;48.274;7.796;2023-05-10T09:16:56;2.13;;;0.90;;
7359;SDS011;3720;48.274;7.796;2023-05-10T09:19:28;2.65;;;0.88;;
7359;SDS011;3720;48.274;7.796;2023-05-10T09:22:01;2.08;;;1.10;;
7359;SDS011;3720;48.274;7.796;2023-05-10T09:24:33;3.15;;;1.05;;
7359;SDS011;3720;48.274;7.796;2023-05-10T09:27:08;2.08;;;0.80;;
7359;SDS011;3720;48.274;7.796;2023-05-10T09:29:41;2.83;;;0.80;;
7359;SDS011;3720;48.274;7.796;2023-05-10T09:32:14;3.40;;;0.80;;
7359;SDS011;3720;48.274;7.796;2023-05-10T09:34:46;2.35;;;1.00;;
7359;SDS011;3720;48.274;7.796;2023-05-10T09:37:21;3.25;;;0.90;;
7359;SDS011;3720;48.274;7.796;2023-05-10T09:40:00;1.85;;;0.80;;
7359;SDS011;3720;48.274;7.796;2023-05-10T09:42:38;3.75;;;0.70;;
7359;SDS011;3720;48.274;7.796;2023-05-10T09:45:12;2.28;;;0.70;;
7359;SDS011;3720;48.274;7.796;2023-05-10T09:47:44;2.25;;;0.60;;
7359;SDS011;3720;48.274;7.796;2023-05-10T09:50:17;1.67;;;0.70;;
7359;SDS011;3720;48.274;7.796;2023-05-10T09:52:50;3.15;;;0.60;;
7359;SDS011;3720;48.274;7.796;2023-05-10T09:55:25;2.67;;;0.80;;
7359;SDS011;3720;48.274;7.796;2023-05-10T09:58:10;4.03;;;0.80;;
7359;SDS011;3720;48.274;7.796;2023-05-10T10:00:43;4.10;;;0.70;;
7359;SDS011;3720;48.274;7.796;2023-05-10T10:03:18;1.73;;;0.65;;
7359;SDS011;3720;48.274;7.796;2023-05-10T10:05:51;3.63;;;0.70;;
7359;SDS011;3720;48.274;7.796;2023-05-10T10:08:25;1.33;;;0.80;;
7359;SDS011;3720;48.274;7.796;2023-05-10T10:10:58;3.00;;;0.63;;
7359;SDS011;3720;48.274;7.796;2023-05-10T10:13:32;3.10;;;0.65;;
7359;SDS011;3720;48.274;7.796;2023-05-10T10:16:04;3.63;;;0.80;;
7359;SDS011;3720;48.274;7.796;2023-05-10T10:18:37;1.70;;;0.75;;
7359;SDS011;3720;48.274;7.796;2023-05-10T10:21:10;1.80;;;0.60;;
7359;SDS011;3720;48.274;7.796;2023-05-10T10:23:44;3.47;;;0.63;;
7359;SDS011;3720;48.274;7.796;2023-05-10T10:26:18;4.80;;;0.60;;
7359;SDS011;3720;48.274;7.796;2023-05-10T10:28:56;2.88;;;0.90;;
7359;SDS011;3720;48.274;7.796;2023-05-10T10:31:40;1.42;;;0.60;;
7359;SDS011;3720;48.274;7.796;2023-05-10T10:34:20;2.08;;;0.65;;
7359;SDS011;3720;48.274;7.796;2023-05-10T10:36:57;2.83;;;0.70;;
7359;SDS011;3720;48.274;7.796;2023-05-10T10:39:29;2.97;;;0.90;;
7359;SDS011;3720;48.274;7.796;2023-05-10T10:42:03;5.75;;;0.80;;
7359;SDS011;3720;48.274;7.796;2023-05-10T10:44:37;3.72;;;0.75;;
7359;SDS011;3720;48.274;7.796;2023-05-10T10:47:21;1.83;;;0.55;;
7359;SDS011;3720;48.274;7.796;2023-05-10T10:50:05;2.67;;;0.70;;
7359;SDS011;3720;48.274;7.796;2023-05-10T10:52:38;3.28;;;0.88;;
7359;SDS011;3720;48.274;7.796;2023-05-10T10:55:12;2.63;;;0.60;;
7359;SDS011;3720;48.274;7.796;2023-05-10T10:57:46;1.30;;;0.55;;
7359;SDS011;3720;48.274;7.796;2023-05-10T11:00:24;1.38;;;0.50;;
7359;SDS011;3720;48.274;7.796;2023-05-10T11:02:58;1.17;;;0.52;;
7359;SDS011;3720;48.274;7.796;2023-05-10T11:05:38;1.25;;;0.57;;
7359;SDS011;3720;48.274;7.796;2023-05-10T11:08:12;6.25;;;0.70;;
7359;SDS011;3720;48.274;7.796;2023-05-10T11:10:49;1.73;;;0.77;;
7359;SDS011;3720;48.274;7.796;2023-05-10T11:13:36;1.65;;;0.60;;
7359;SDS011;3720;48.274;7.796;2023-05-10T11:16:15;2.72;;;0.60;;
7359;SDS011;3720;48.274;7.796;2023-05-10T11:18:54;1.77;;;0.50;;
7359;SDS011;3720;48.274;7.796;2023-05-10T11:21:29;1.80;;;0.68;;
7359;SDS011;3720;48.274;7.796;2023-05-10T11:24:09;1.90;;;0.70;;
7359;SDS011;3720;48.274;7.796;2023-05-10T11:26:44;1.77;;;0.50;;
7359;SDS011;3720;48.274;7.796;2023-05-10T11:29:17;2.45;;;0.68;;
7359;SDS011;3720;48.274;7.796;2023-05-10T11:31:50;1.70;;;0.60;;
7359;SDS011;3720;48.274;7.796;2023-05-10T11:34:23;3.33;;;0.70;;
7359;SDS011;3720;48.274;7.796;2023-05-10T11:36:56;2.15;;;0.63;;
7359;SDS011;3720;48.274;7.796;2023-05-10T11:39:29;3.53;;;0.70;;
7359;SDS011;3720;48.274;7.796;2023-05-10T11:42:02;1.33;;;0.50;;
7359;SDS011;3720;48.274;7.796;2023-05-10T11:44:34;2.95;;;0.60;;
7359;SDS011;3720;48.274;7.796;2023-05-10T11:47:08;1.85;;;0.60;;
7359;SDS011;3720;48.274;7.796;2023-05-10T11:49:43;2.30;;;0.60;;
7359;SDS011;3720;48.274;7.796;2023-05-10T11:52:14;1.35;;;0.70;;
7359;SDS011;3720;48.274;7.796;2023-05-10T11:54:50;1.35;;;0.63;;
7359;SDS011;3720;48.274;7.796;2023-05-10T11:57:26;2.95;;;0.60;;
7359;SDS011;3720;48.274;7.796;2023-05-10T11:59:59;1.63;;;0.50;;
7359;SDS011;3720;48.274;7.796;2023-05-10T12:02:35;1.60;;;0.52;;
7359;SDS011;3720;48.274;7.796;2023-05-10T12:05:07;1.38;;;0.60;;
7359;SDS011;3720;48.274;7.796;2023-05-10T12:07:40;1.58;;;0.60;;
7359;SDS011;3720;48.274;7.796;2023-05-10T12:10:13;2.10;;;0.50;;
7359;SDS011;3720;48.274;7.796;2023-05-10T12:12:46;1.80;;;0.47;;
7359;SDS011;3720;48.274;7.796;2023-05-10T12:15:19;1.58;;;0.60;;
7359;SDS011;3720;48.274;7.796;2023-05-10T12:17:54;1.70;;;0.50;;
7359;SDS011;3720;48.274;7.796;2023-05-10T12:20:28;1.88;;;0.73;;
7359;SDS011;3720;48.274;7.796;2023-05-10T12:23:00;2.83;;;0.60;;
7359;SDS011;3720;48.274;7.796;2023-05-10T12:25:34;4.10;;;0.77;;
7359;SDS011;3720;48.274;7.796;2023-05-10T12:28:07;0.90;;;0.52;;
7359;SDS011;3720;48.274;7.796;2023-05-10T12:30:40;1.23;;;0.55;;
7359;SDS011;3720;48.274;7.796;2023-05-10T12:33:13;2.00;;;0.50;;
7359;SDS011;3720;48.274;7.796;2023-05-10T12:35:47;1.40;;;0.60;;
7359;SDS011;3720;48.274;7.796;2023-05-10T12:38:27;4.45;;;0.68;;
7359;SDS011;3720;48.274;7.796;2023-05-10T12:41:01;1.75;;;0.40;;
7359;SDS011;3720;48.274;7.796;2023-05-10T12:43:35;1.30;;;0.50;;
7359;SDS011;3720;48.274;7.796;2023-05-10T12:46:08;0.98;;;0.40;;
7359;SDS011;3720;48.274;7.796;2023-05-10T12:48:42;2.05;;;0.60;;
7359;SDS011;3720;48.274;7.796;2023-05-10T12:51:16;2.65;;;0.60;;
7359;SDS011;3720;48.274;7.796;2023-05-10T12:53:51;1.80;;;0.50;;
7359;SDS011;3720;48.274;7.796;2023-05-10T12:56:24;0.82;;;0.40;;
7359;SDS011;3720;48.274;7.796;2023-05-10T12:58:56;1.58;;;0.70;;
7359;SDS011;3720;48.274;7.796;2023-05-10T13:01:28;3.03;;;0.47;;
7359;SDS011;3720;48.274;7.796;2023-05-10T13:04:01;2.47;;;0.40;;
7359;SDS011;3720;48.274;7.796;2023-05-10T13:06:33;2.13;;;0.32;;
7359;SDS011;3720;48.274;7.796;2023-05-10T13:09:05;1.40;;;0.40;;
7359;SDS011;3720;48.274;7.796;2023-05-10T13:11:38;2.33;;;0.50;;
7359;SDS011;3720;48.274;7.796;2023-05-10T13:14:09;2.35;;;0.40;;
7359;SDS011;3720;48.274;7.796;2023-05-10T13:16:41;2.00;;;0.60;;
7359;SDS011;3720;48.274;7.796;2023-05-10T13:19:15;1.02;;;0.40;;
7359;SDS011;3720;48.274;7.796;2023-05-10T13:21:48;1.25;;;0.55;;
7359;SDS011;3720;48.274;7.796;2023-05-10T13:24:20;3.25;;;0.60;;
7359;SDS011;3720;48.274;7.796;2023-05-10T13:26:52;1.73;;;0.30;;
7359;SDS011;3720;48.274;7.796;2023-05-10T13:29:24;1.15;;;0.32;;
7359;SDS011;3720;48.274;7.796;2023-05-10T13:31:55;1.80;;;0.40;;
7359;SDS011;3720;48.274;7.796;2023-05-10T13:34:29;2.80;;;0.40;;
7359;SDS011;3720;48.274;7.796;2023-05-10T13:37:01;2.13;;;0.40;;
7359;SDS011;3720;48.274;7.796;2023-05-10T13:39:33;2.10;;;0.50;;
7359;SDS011;3720;48.274;7.796;2023-05-10T13:42:07;1.08;;;0.40;;
7359;SDS011;3720;48.274;7.796;2023-05-10T13:44:39;1.20;;;0.40;;
7359;SDS011;3720;48.274;7.796;2023-05-10T13:47:11;1.15;;;0.47;;
7359;SDS011;3720;48.274;7.796;2023-05-10T13:49:44;2.30;;;0.60;;
7359;SDS011;3720;48.274;7.796;2023-05-10T13:52:16;2.05;;;0.50;;
7359;SDS011;3720;48.274;7.796;2023-05-10T13:54:48;2.35;;;0.50;;
7359;SDS011;3720;48.274;7.796;2023-05-10T13:57:22;1.25;;;0.60;;
7359;SDS011;3720;48.274;7.796;2023-05-10T13:59:54;2.33;;;0.50;;
7359;SDS011;3720;48.274;7.796;2023-05-10T14:02:27;1.27;;;0.52;;
7359;SDS011;3720;48.274;7.796;2023-05-10T14:05:00;0.73;;;0.40;;
7359;SDS011;3720;48.274;7.796;2023-05-10T14:07:33;2.58;;;0.50;;
7359;SDS011;3720;48.274;7.796;2023-05-10T14:10:05;0.93;;;0.50;;
7359;SDS011;3720;48.274;7.796;2023-05-10T14:12:37;0.98;;;0.47;;
7359;SDS011;3720;48.274;7.796;2023-05-10T14:15:10;2.85;;;0.40;;
7359;SDS011;3720;48.274;7.796;2023-05-10T14:17:42;1.48;;;0.47;;
7359;SDS011;3720;48.274;7.796;2023-05-10T14:20:15;1.15;;;0.40;;
7359;SDS011;3720;48.274;7.796;2023-05-10T14:22:47;2.65;;;0.50;;
7359;SDS011;3720;48.274;7.796;2023-05-10T14:25:19;1.23;;;0.30;;
7359;SDS011;3720;48.274;7.796;2023-05-10T14:27:51;1.55;;;0.30;;
7359;SDS011;3720;48.274;7.796;2023-05-10T14:30:24;0.75;;;0.30;;
7359;SDS011;3720;48.274;7.796;2023-05-10T14:32:56;1.45;;;0.40;;
7359;SDS011;3720;48.274;7.796;2023-05-10T14:35:29;1.85;;;0.30;;
7359;SDS011;3720;48.274;7.796;2023-05-10T14:38:02;1.45;;;0.40;;
7359;SDS011;3720;48.274;7.796;2023-05-10T14:40:34;2.10;;;0.50;;
7359;SDS011;3720;48.274;7.796;2023-05-10T14:43:06;0.98;;;0.30;;
7359;SDS011;3720;48.274;7.796;2023-05-10T14:45:38;1.13;;;0.40;;
7359;SDS011;3720;48.274;7.796;2023-05-10T14:48:10;0.88;;;0.30;;
7359;SDS011;3720;48.274;7.796;2023-05-10T14:50:46;1.02;;;0.40;;
7359;SDS011;3720;48.274;7.796;2023-05-10T14:53:19;0.40;;;0.30;;
7359;SDS011;3720;48.274;7.796;2023-05-10T14:55:51;0.70;;;0.40;;
7359;SDS011;3720;48.274;7.796;2023-05-10T14:58:23;0.63;;;0.32;;
7359;SDS011;3720;48.274;7.796;2023-05-10T15:00:56;3.40;;;0.40;;
7359;SDS011;3720;48.274;7.796;2023-05-10T15:03:27;2.25;;;0.40;;
7359;SDS011;3720;48.274;7.796;2023-05-10T15:06:01;1.95;;;0.40;;
7359;SDS011;3720;48.274;7.796;2023-05-10T15:08:34;2.42;;;0.60;;
7359;SDS011;3720;48.274;7.796;2023-05-10T15:11:05;4.28;;;0.68;;
7359;SDS011;3720;48.274;7.796;2023-05-10T15:13:37;3.50;;;0.60;;
7359;SDS011;3720;48.274;7.796;2023-05-10T15:16:10;4.72;;;0.80;;
7359;SDS011;3720;48.274;7.796;2023-05-10T15:18:41;0.55;;;0.30;;
7359;SDS011;3720;48.274;7.796;2023-05-10T15:21:15;1.40;;;0.38;;
7359;SDS011;3720;48.274;7.796;2023-05-10T15:23:46;0.57;;;0.35;;
7359;SDS011;3720;48.274;7.796;2023-05-10T15:26:18;0.95;;;0.40;;
7359;SDS011;3720;48.274;7.796;2023-05-10T15:28:51;0.73;;;0.45;;
7359;SDS011;3720;48.274;7.796;2023-05-10T15:31:23;3.03;;;0.50;;
7359;SDS011;3720;48.274;7.796;2023-05-10T15:33:56;1.50;;;0.40;;
7359;SDS011;3720;48.274;7.796;2023-05-10T15:36:31;0.70;;;0.38;;
7359;SDS011;3720;48.274;7.796;2023-05-10T15:39:03;2.67;;;0.60;;
7359;SDS011;3720;48.274;7.796;2023-05-10T15:41:35;4.57;;;0.40;;
7359;SDS011;3720;48.274;7.796;2023-05-10T15:44:07;2.40;;;0.60;;
7359;SDS011;3720;48.274;7.796;2023-05-10T15:46:39;3.05;;;0.50;;
7359;SDS011;3720;48.274;7.796;2023-05-10T15:49:11;1.08;;;0.65;;
7359;SDS011;3720;48.274;7.796;2023-05-10T15:51:44;0.95;;;0.55;;
7359;SDS011;3720;48.274;7.796;2023-05-10T15:54:17;2.25;;;0.60;;
7359;SDS011;3720;48.274;7.796;2023-05-10T15:56:48;1.85;;;0.50;;
7359;SDS011;3720;48.274;7.796;2023-05-10T15:59:20;2.33;;;0.50;;